sensor_id;sensor_type;location;lat;lon;timestamp;P1;durP1;ratioP1;P2;durP2;ratioP2
43086;SDS011;28708;52.224;6.924;2022-09-01T00:00:49;4.10;;;1.60;;
43086;SDS011;28708;52.224;6.924;2022-09-01T00:03:15;4.10;;;1.53;;
43086;SDS011;28708;52.224;6.924;2022-09-01T00:05:42;2.37;;;1.27;;
43086;SDS011;28708;52.224;6.924;2022-09-01T00:08:11;4.07;;;1.20;;
43086;SDS011;28708;52.224;6.924;2022-09-01T00:10:38;2.87;;;1.23;;
43086;SDS011;28708;52.224;6.924;2022-09-01T00:13:04;3.07;;;1.30;;
43086;SDS011;28708;52.224;6.924;2022-09-01T00:15:34;4.03;;;1.47;;
43086;SDS011;28708;52.224;6.924;2022-09-01T00:18:01;3.00;;;1.10;;
43086;SDS011;28708;52.224;6.924;2022-09-01T00:20:27;5.00;;;1.53;;
43086;SDS011;28708;52.224;6.924;2022-09-01T00:22:53;3.47;;;1.30;;
43086;SDS011;28708;52.224;6.924;2022-09-01T00:25:20;4.37;;;1.40;;
43086;SDS011;28708;52.224;6.924;2022-09-01T00:27:47;3.10;;;1.33;;
43086;SDS011;28708;52.224;6.924;2022-09-01T00:30:13;2.30;;;1.30;;
43086;SDS011;28708;52.224;6.924;2022-09-01T00:32:40;3.80;;;1.27;;
43086;SDS011;28708;52.224;6.924;2022-09-01T00:35:11;3.63;;;1.70;;
43086;SDS011;28708;52.224;6.924;2022-09-01T00:37:39;2.43;;;1.53;;
43086;SDS011;28708;52.224;6.924;2022-09-01T00:40:05;2.67;;;1.53;;
43086;SDS011;28708;52.224;6.924;2022-09-01T00:42:31;7.80;;;1.63;;
43086;SDS011;28708;52.224;6.924;2022-09-01T00:44:57;2.93;;;1.23;;
43086;SDS011;28708;52.224;6.924;2022-09-01T00:47:23;2.50;;;1.10;;
43086;SDS011;28708;52.224;6.924;2022-09-01T00:49:49;4.00;;;1.33;;
43086;SDS011;28708;52.224;6.924;2022-09-01T00:52:18;3.30;;;1.60;;
43086;SDS011;28708;52.224;6.924;2022-09-01T00:54:56;4.97;;;1.40;;
43086;SDS011;28708;52.224;6.924;2022-09-01T00:57:26;5.80;;;1.50;;
43086;SDS011;28708;52.224;6.924;2022-09-01T00:59:57;4.47;;;1.30;;
43086;SDS011;28708;52.224;6.924;2022-09-01T01:02:26;3.57;;;1.40;;
43086;SDS011;28708;52.224;6.924;2022-09-01T01:04:52;2.57;;;1.20;;
43086;SDS011;28708;52.224;6.924;2022-09-01T01:07:20;2.57;;;1.30;;
43086;SDS011;28708;52.224;6.924;2022-09-01T01:09:47;2.97;;;1.20;;
43086;SDS011;28708;52.224;6.924;2022-09-01T01:12:14;4.23;;;1.40;;
43086;SDS011;28708;52.224;6.924;2022-09-01T01:14:43;2.87;;;1.30;;
43086;SDS011;28708;52.224;6.924;2022-09-01T01:17:14;3.97;;;1.20;;
43086;SDS011;28708;52.224;6.924;2022-09-01T01:19:46;3.93;;;1.40;;
43086;SDS011;28708;52.224;6.924;2022-09-01T01:25:41;4.27;;;1.30;;
43086;SDS011;28708;52.224;6.924;2022-09-01T01:30:52;3.40;;;1.57;;
43086;SDS011;28708;52.224;6.924;2022-09-01T01:33:24;5.63;;;1.70;;
43086;SDS011;28708;52.224;6.924;2022-09-01T01:35:52;4.43;;;1.40;;
43086;SDS011;28708;52.224;6.924;2022-09-01T01:38:23;5.33;;;1.60;;
43086;SDS011;28708;52.224;6.924;2022-09-01T01:40:50;5.27;;;1.70;;
43086;SDS011;28708;52.224;6.924;2022-09-01T01:43:19;3.27;;;1.30;;
43086;SDS011;28708;52.224;6.924;2022-09-01T01:45:48;2.60;;;1.27;;
43086;SDS011;28708;52.224;6.924;2022-09-01T01:48:19;5.87;;;1.60;;
43086;SDS011;28708;52.224;6.924;2022-09-01T01:50:47;4.63;;;1.80;;
43086;SDS011;28708;52.224;6.924;2022-09-01T01:53:18;2.17;;;1.33;;
43086;SDS011;28708;52.224;6.924;2022-09-01T01:55:46;2.87;;;1.30;;
43086;SDS011;28708;52.224;6.924;2022-09-01T01:58:16;2.45;;;1.40;;
43086;SDS011;28708;52.224;6.924;2022-09-01T02:00:45;2.63;;;1.53;;
43086;SDS011;28708;52.224;6.924;2022-09-01T02:03:14;3.73;;;1.47;;
43086;SDS011;28708;52.224;6.924;2022-09-01T02:05:43;2.33;;;1.40;;
43086;SDS011;28708;52.224;6.924;2022-09-01T02:08:11;5.93;;;1.40;;
43086;SDS011;28708;52.224;6.924;2022-09-01T02:10:39;3.27;;;1.13;;
43086;SDS011;28708;52.224;6.924;2022-09-01T02:13:09;3.38;;;1.50;;
43086;SDS011;28708;52.224;6.924;2022-09-01T02:15:45;2.33;;;1.20;;
43086;SDS011;28708;52.224;6.924;2022-09-01T02:20:42;4.17;;;1.60;;
43086;SDS011;28708;52.224;6.924;2022-09-01T02:23:09;2.83;;;1.20;;
43086;SDS011;28708;52.224;6.924;2022-09-01T02:25:38;2.67;;;1.40;;
43086;SDS011;28708;52.224;6.924;2022-09-01T02:28:09;4.07;;;1.40;;
43086;SDS011;28708;52.224;6.924;2022-09-01T02:30:41;4.30;;;1.60;;
43086;SDS011;28708;52.224;6.924;2022-09-01T02:33:14;2.33;;;1.30;;
43086;SDS011;28708;52.224;6.924;2022-09-01T02:35:46;5.43;;;1.30;;
43086;SDS011;28708;52.224;6.924;2022-09-01T02:38:16;3.17;;;1.20;;
43086;SDS011;28708;52.224;6.924;2022-09-01T02:40:45;3.23;;;1.20;;
43086;SDS011;28708;52.224;6.924;2022-09-01T02:43:13;3.73;;;1.50;;
43086;SDS011;28708;52.224;6.924;2022-09-01T02:45:49;2.30;;;1.27;;
43086;SDS011;28708;52.224;6.924;2022-09-01T02:48:21;3.77;;;1.30;;
43086;SDS011;28708;52.224;6.924;2022-09-01T02:51:05;2.37;;;1.23;;
43086;SDS011;28708;52.224;6.924;2022-09-01T02:53:35;3.07;;;1.37;;
43086;SDS011;28708;52.224;6.924;2022-09-01T02:56:06;2.93;;;1.37;;
43086;SDS011;28708;52.224;6.924;2022-09-01T02:58:36;2.97;;;1.40;;
43086;SDS011;28708;52.224;6.924;2022-09-01T03:01:12;5.97;;;1.83;;
43086;SDS011;28708;52.224;6.924;2022-09-01T03:03:44;3.30;;;1.30;;
43086;SDS011;28708;52.224;6.924;2022-09-01T03:06:10;3.57;;;1.20;;
43086;SDS011;28708;52.224;6.924;2022-09-01T03:08:37;2.47;;;1.40;;
43086;SDS011;28708;52.224;6.924;2022-09-01T03:11:04;3.07;;;1.40;;
43086;SDS011;28708;52.224;6.924;2022-09-01T03:13:35;3.83;;;1.70;;
43086;SDS011;28708;52.224;6.924;2022-09-01T03:16:04;3.10;;;1.07;;
43086;SDS011;28708;52.224;6.924;2022-09-01T03:18:31;2.30;;;1.20;;
43086;SDS011;28708;52.224;6.924;2022-09-01T03:20:58;2.23;;;1.23;;
43086;SDS011;28708;52.224;6.924;2022-09-01T03:23:27;3.07;;;1.63;;
43086;SDS011;28708;52.224;6.924;2022-09-01T03:25:55;5.27;;;1.20;;
43086;SDS011;28708;52.224;6.924;2022-09-01T03:28:21;2.40;;;1.13;;
43086;SDS011;28708;52.224;6.924;2022-09-01T03:30:49;2.87;;;1.40;;
43086;SDS011;28708;52.224;6.924;2022-09-01T03:33:18;3.87;;;1.50;;
43086;SDS011;28708;52.224;6.924;2022-09-01T03:35:45;2.47;;;1.40;;
43086;SDS011;28708;52.224;6.924;2022-09-01T03:38:11;4.43;;;1.30;;
43086;SDS011;28708;52.224;6.924;2022-09-01T03:40:45;4.93;;;1.50;;
43086;SDS011;28708;52.224;6.924;2022-09-01T03:43:12;5.13;;;1.50;;
43086;SDS011;28708;52.224;6.924;2022-09-01T03:45:40;5.17;;;1.63;;
43086;SDS011;28708;52.224;6.924;2022-09-01T03:48:08;3.77;;;1.53;;
43086;SDS011;28708;52.224;6.924;2022-09-01T03:50:36;3.50;;;1.77;;
43086;SDS011;28708;52.224;6.924;2022-09-01T03:53:05;3.90;;;1.73;;
43086;SDS011;28708;52.224;6.924;2022-09-01T03:55:32;4.33;;;1.60;;
43086;SDS011;28708;52.224;6.924;2022-09-01T03:58:01;5.00;;;1.73;;
43086;SDS011;28708;52.224;6.924;2022-09-01T04:00:31;2.53;;;1.20;;
43086;SDS011;28708;52.224;6.924;2022-09-01T04:05:28;4.47;;;1.33;;
43086;SDS011;28708;52.224;6.924;2022-09-01T04:08:00;3.03;;;1.37;;
43086;SDS011;28708;52.224;6.924;2022-09-01T04:10:31;6.22;;;1.50;;
43086;SDS011;28708;52.224;6.924;2022-09-01T04:12:59;3.57;;;1.70;;
43086;SDS011;28708;52.224;6.924;2022-09-01T04:15:27;2.57;;;1.40;;
43086;SDS011;28708;52.224;6.924;2022-09-01T04:17:53;5.37;;;1.70;;
43086;SDS011;28708;52.224;6.924;2022-09-01T04:20:37;3.97;;;1.50;;
43086;SDS011;28708;52.224;6.924;2022-09-01T04:23:20;3.83;;;1.43;;
43086;SDS011;28708;52.224;6.924;2022-09-01T04:25:58;2.90;;;1.60;;
43086;SDS011;28708;52.224;6.924;2022-09-01T04:28:40;2.07;;;1.37;;
43086;SDS011;28708;52.224;6.924;2022-09-01T04:31:11;3.53;;;1.57;;
43086;SDS011;28708;52.224;6.924;2022-09-01T04:33:44;3.13;;;1.57;;
43086;SDS011;28708;52.224;6.924;2022-09-01T04:36:14;6.88;;;1.67;;
43086;SDS011;28708;52.224;6.924;2022-09-01T04:38:45;4.30;;;1.60;;
43086;SDS011;28708;52.224;6.924;2022-09-01T04:41:13;3.57;;;1.50;;
43086;SDS011;28708;52.224;6.924;2022-09-01T04:43:45;4.50;;;1.67;;
43086;SDS011;28708;52.224;6.924;2022-09-01T04:46:13;2.70;;;1.53;;
43086;SDS011;28708;52.224;6.924;2022-09-01T04:48:41;4.77;;;2.00;;
43086;SDS011;28708;52.224;6.924;2022-09-01T04:51:10;3.60;;;1.70;;
43086;SDS011;28708;52.224;6.924;2022-09-01T04:53:54;3.60;;;1.80;;
43086;SDS011;28708;52.224;6.924;2022-09-01T04:56:22;3.63;;;1.80;;
43086;SDS011;28708;52.224;6.924;2022-09-01T04:59:02;4.05;;;1.63;;
43086;SDS011;28708;52.224;6.924;2022-09-01T05:01:32;5.57;;;1.80;;
43086;SDS011;28708;52.224;6.924;2022-09-01T05:04:09;4.17;;;1.73;;
43086;SDS011;28708;52.224;6.924;2022-09-01T05:06:39;3.63;;;1.63;;
43086;SDS011;28708;52.224;6.924;2022-09-01T05:09:07;7.00;;;1.70;;
43086;SDS011;28708;52.224;6.924;2022-09-01T05:11:54;3.53;;;1.47;;
43086;SDS011;28708;52.224;6.924;2022-09-01T05:14:25;5.93;;;2.07;;
43086;SDS011;28708;52.224;6.924;2022-09-01T05:16:56;5.83;;;1.77;;
43086;SDS011;28708;52.224;6.924;2022-09-01T05:19:25;5.40;;;1.40;;
43086;SDS011;28708;52.224;6.924;2022-09-01T05:21:57;6.37;;;1.90;;
43086;SDS011;28708;52.224;6.924;2022-09-01T05:24:24;5.67;;;1.80;;
43086;SDS011;28708;52.224;6.924;2022-09-01T05:26:57;4.17;;;1.93;;
43086;SDS011;28708;52.224;6.924;2022-09-01T05:29:25;4.13;;;1.93;;
43086;SDS011;28708;52.224;6.924;2022-09-01T05:31:52;3.50;;;1.70;;
43086;SDS011;28708;52.224;6.924;2022-09-01T05:34:24;3.43;;;2.00;;
43086;SDS011;28708;52.224;6.924;2022-09-01T05:36:56;6.03;;;1.83;;
43086;SDS011;28708;52.224;6.924;2022-09-01T05:39:24;6.47;;;1.90;;
43086;SDS011;28708;52.224;6.924;2022-09-01T05:41:50;5.07;;;1.63;;
43086;SDS011;28708;52.224;6.924;2022-09-01T05:44:18;2.67;;;1.40;;
43086;SDS011;28708;52.224;6.924;2022-09-01T05:46:48;5.55;;;1.60;;
43086;SDS011;28708;52.224;6.924;2022-09-01T05:49:16;2.93;;;1.80;;
43086;SDS011;28708;52.224;6.924;2022-09-01T05:51:48;3.37;;;2.00;;
43086;SDS011;28708;52.224;6.924;2022-09-01T05:54:18;4.80;;;1.93;;
43086;SDS011;28708;52.224;6.924;2022-09-01T05:56:47;3.13;;;2.03;;
43086;SDS011;28708;52.224;6.924;2022-09-01T05:59:18;10.47;;;6.70;;
43086;SDS011;28708;52.224;6.924;2022-09-01T06:01:45;6.30;;;2.73;;
43086;SDS011;28708;52.224;6.924;2022-09-01T06:04:12;14.40;;;9.13;;
43086;SDS011;28708;52.224;6.924;2022-09-01T06:06:41;6.37;;;2.87;;
43086;SDS011;28708;52.224;6.924;2022-09-01T06:09:16;9.53;;;2.77;;
43086;SDS011;28708;52.224;6.924;2022-09-01T06:11:44;9.67;;;2.47;;
43086;SDS011;28708;52.224;6.924;2022-09-01T06:14:14;3.90;;;2.07;;
43086;SDS011;28708;52.224;6.924;2022-09-01T06:16:44;4.23;;;1.87;;
43086;SDS011;28708;52.224;6.924;2022-09-01T06:19:12;4.83;;;2.00;;
43086;SDS011;28708;52.224;6.924;2022-09-01T06:21:42;3.65;;;1.80;;
43086;SDS011;28708;52.224;6.924;2022-09-01T06:24:07;7.07;;;2.77;;
43086;SDS011;28708;52.224;6.924;2022-09-01T06:26:35;4.63;;;2.30;;
43086;SDS011;28708;52.224;6.924;2022-09-01T06:29:04;6.55;;;2.38;;
43086;SDS011;28708;52.224;6.924;2022-09-01T06:31:35;7.83;;;3.23;;
43086;SDS011;28708;52.224;6.924;2022-09-01T06:34:08;4.93;;;2.90;;
43086;SDS011;28708;52.224;6.924;2022-09-01T06:36:38;5.77;;;2.67;;
43086;SDS011;28708;52.224;6.924;2022-09-01T06:39:07;6.30;;;2.53;;
43086;SDS011;28708;52.224;6.924;2022-09-01T06:41:34;7.93;;;2.40;;
43086;SDS011;28708;52.224;6.924;2022-09-01T06:44:06;3.50;;;1.93;;
43086;SDS011;28708;52.224;6.924;2022-09-01T06:46:33;4.87;;;2.50;;
43086;SDS011;28708;52.224;6.924;2022-09-01T06:49:02;6.27;;;2.07;;
43086;SDS011;28708;52.224;6.924;2022-09-01T06:51:28;6.10;;;3.00;;
43086;SDS011;28708;52.224;6.924;2022-09-01T06:53:57;7.10;;;2.78;;
43086;SDS011;28708;52.224;6.924;2022-09-01T06:56:30;3.77;;;2.40;;
43086;SDS011;28708;52.224;6.924;2022-09-01T06:58:58;10.07;;;2.87;;
43086;SDS011;28708;52.224;6.924;2022-09-01T07:01:28;5.03;;;2.30;;
43086;SDS011;28708;52.224;6.924;2022-09-01T07:03:55;9.43;;;2.40;;
43086;SDS011;28708;52.224;6.924;2022-09-01T07:06:33;7.10;;;2.43;;
43086;SDS011;28708;52.224;6.924;2022-09-01T07:09:14;5.30;;;2.00;;
43086;SDS011;28708;52.224;6.924;2022-09-01T07:11:43;8.97;;;2.47;;
43086;SDS011;28708;52.224;6.924;2022-09-01T07:14:09;8.03;;;2.50;;
43086;SDS011;28708;52.224;6.924;2022-09-01T07:16:37;6.00;;;2.40;;
43086;SDS011;28708;52.224;6.924;2022-09-01T07:19:07;5.37;;;2.10;;
43086;SDS011;28708;52.224;6.924;2022-09-01T07:21:58;6.90;;;2.07;;
43086;SDS011;28708;52.224;6.924;2022-09-01T07:24:25;7.87;;;1.90;;
43086;SDS011;28708;52.224;6.924;2022-09-01T07:27:10;4.10;;;1.97;;
43086;SDS011;28708;52.224;6.924;2022-09-01T07:29:37;7.70;;;1.90;;
43086;SDS011;28708;52.224;6.924;2022-09-01T07:32:03;6.73;;;2.10;;
43086;SDS011;28708;52.224;6.924;2022-09-01T07:34:30;4.40;;;2.03;;
43086;SDS011;28708;52.224;6.924;2022-09-01T07:36:58;6.67;;;1.80;;
43086;SDS011;28708;52.224;6.924;2022-09-01T07:39:26;6.37;;;2.10;;
43086;SDS011;28708;52.224;6.924;2022-09-01T07:42:18;6.17;;;1.80;;
43086;SDS011;28708;52.224;6.924;2022-09-01T07:45:04;8.90;;;2.63;;
43086;SDS011;28708;52.224;6.924;2022-09-01T07:47:42;6.03;;;2.10;;
43086;SDS011;28708;52.224;6.924;2022-09-01T07:50:10;7.03;;;1.97;;
43086;SDS011;28708;52.224;6.924;2022-09-01T07:52:40;6.80;;;1.70;;
43086;SDS011;28708;52.224;6.924;2022-09-01T07:55:09;5.00;;;1.53;;
43086;SDS011;28708;52.224;6.924;2022-09-01T07:57:37;2.53;;;1.37;;
43086;SDS011;28708;52.224;6.924;2022-09-01T08:02:40;4.63;;;1.63;;
43086;SDS011;28708;52.224;6.924;2022-09-01T08:05:12;6.95;;;1.58;;
43086;SDS011;28708;52.224;6.924;2022-09-01T08:07:42;5.13;;;1.57;;
43086;SDS011;28708;52.224;6.924;2022-09-01T08:10:11;7.63;;;1.60;;
43086;SDS011;28708;52.224;6.924;2022-09-01T08:12:38;5.13;;;1.50;;
43086;SDS011;28708;52.224;6.924;2022-09-01T08:15:05;4.70;;;1.20;;
43086;SDS011;28708;52.224;6.924;2022-09-01T08:17:33;5.27;;;1.47;;
43086;SDS011;28708;52.224;6.924;2022-09-01T08:20:05;3.60;;;1.33;;
43086;SDS011;28708;52.224;6.924;2022-09-01T08:23:03;4.30;;;1.50;;
43086;SDS011;28708;52.224;6.924;2022-09-01T08:25:32;2.27;;;1.20;;
43086;SDS011;28708;52.224;6.924;2022-09-01T08:28:00;4.70;;;1.47;;
43086;SDS011;28708;52.224;6.924;2022-09-01T08:30:27;4.37;;;1.20;;
43086;SDS011;28708;52.224;6.924;2022-09-01T08:32:54;3.00;;;1.27;;
43086;SDS011;28708;52.224;6.924;2022-09-01T08:35:20;8.00;;;1.30;;
43086;SDS011;28708;52.224;6.924;2022-09-01T08:37:46;3.00;;;1.33;;
43086;SDS011;28708;52.224;6.924;2022-09-01T08:40:13;5.47;;;1.23;;
43086;SDS011;28708;52.224;6.924;2022-09-01T08:47:54;3.90;;;1.17;;
43086;SDS011;28708;52.224;6.924;2022-09-01T08:53:28;4.50;;;1.50;;
43086;SDS011;28708;52.224;6.924;2022-09-01T08:56:00;5.53;;;1.30;;
43086;SDS011;28708;52.224;6.924;2022-09-01T08:58:27;3.50;;;0.83;;
43086;SDS011;28708;52.224;6.924;2022-09-01T09:01:17;4.57;;;1.30;;
43086;SDS011;28708;52.224;6.924;2022-09-01T09:06:21;6.37;;;1.20;;
43086;SDS011;28708;52.224;6.924;2022-09-01T09:09:03;2.83;;;0.67;;
43086;SDS011;28708;52.224;6.924;2022-09-01T09:16:57;6.10;;;0.90;;
43086;SDS011;28708;52.224;6.924;2022-09-01T09:19:25;1.77;;;0.60;;
43086;SDS011;28708;52.224;6.924;2022-09-01T09:22:00;2.77;;;0.90;;
43086;SDS011;28708;52.224;6.924;2022-09-01T09:29:49;2.92;;;1.00;;
43086;SDS011;28708;52.224;6.924;2022-09-01T09:35:30;1.98;;;0.80;;
43086;SDS011;28708;52.224;6.924;2022-09-01T09:48:49;4.55;;;0.93;;
43086;SDS011;28708;52.224;6.924;2022-09-01T09:51:31;3.83;;;0.90;;
43086;SDS011;28708;52.224;6.924;2022-09-01T09:54:13;4.43;;;1.20;;
43086;SDS011;28708;52.224;6.924;2022-09-01T09:56:40;3.58;;;1.05;;
43086;SDS011;28708;52.224;6.924;2022-09-01T10:04:51;3.60;;;1.10;;
43086;SDS011;28708;52.224;6.924;2022-09-01T10:09:49;2.33;;;0.85;;
43086;SDS011;28708;52.224;6.924;2022-09-01T10:12:16;2.15;;;0.90;;
43086;SDS011;28708;52.224;6.924;2022-09-01T10:14:50;3.55;;;1.17;;
43086;SDS011;28708;52.224;6.924;2022-09-01T10:17:24;2.85;;;0.90;;
43086;SDS011;28708;52.224;6.924;2022-09-01T10:22:32;1.70;;;0.80;;
43086;SDS011;28708;52.224;6.924;2022-09-01T10:25:00;1.80;;;0.82;;
43086;SDS011;28708;52.224;6.924;2022-09-01T10:27:29;3.83;;;0.93;;
43086;SDS011;28708;52.224;6.924;2022-09-01T10:30:05;3.10;;;0.80;;
43086;SDS011;28708;52.224;6.924;2022-09-01T10:32:33;2.92;;;0.80;;
43086;SDS011;28708;52.224;6.924;2022-09-01T10:35:03;3.40;;;0.80;;
43086;SDS011;28708;52.224;6.924;2022-09-01T10:37:33;3.70;;;0.90;;
43086;SDS011;28708;52.224;6.924;2022-09-01T10:40:09;3.20;;;1.27;;
43086;SDS011;28708;52.224;6.924;2022-09-01T10:42:38;2.43;;;0.90;;
43086;SDS011;28708;52.224;6.924;2022-09-01T10:45:14;1.58;;;0.75;;
43086;SDS011;28708;52.224;6.924;2022-09-01T10:47:54;2.15;;;0.73;;
43086;SDS011;28708;52.224;6.924;2022-09-01T10:50:25;2.33;;;1.00;;
43086;SDS011;28708;52.224;6.924;2022-09-01T10:53:00;2.45;;;0.80;;
43086;SDS011;28708;52.224;6.924;2022-09-01T10:55:33;1.63;;;0.68;;
43086;SDS011;28708;52.224;6.924;2022-09-01T10:58:17;4.03;;;0.80;;
43086;SDS011;28708;52.224;6.924;2022-09-01T11:01:03;2.63;;;0.80;;
43086;SDS011;28708;52.224;6.924;2022-09-01T11:03:35;2.55;;;0.95;;
43086;SDS011;28708;52.224;6.924;2022-09-01T11:06:03;3.22;;;0.75;;
43086;SDS011;28708;52.224;6.924;2022-09-01T11:13:49;2.10;;;0.70;;
43086;SDS011;28708;52.224;6.924;2022-09-01T11:18:52;2.22;;;0.60;;
43086;SDS011;28708;52.224;6.924;2022-09-01T11:21:23;3.90;;;1.00;;
43086;SDS011;28708;52.224;6.924;2022-09-01T11:26:55;2.60;;;0.88;;
43086;SDS011;28708;52.224;6.924;2022-09-01T11:32:21;5.13;;;1.05;;
43086;SDS011;28708;52.224;6.924;2022-09-01T11:34:51;2.95;;;0.90;;
43086;SDS011;28708;52.224;6.924;2022-09-01T11:37:22;2.95;;;0.95;;
43086;SDS011;28708;52.224;6.924;2022-09-01T11:39:50;3.70;;;0.80;;
43086;SDS011;28708;52.224;6.924;2022-09-01T11:44:49;2.08;;;0.90;;
43086;SDS011;28708;52.224;6.924;2022-09-01T11:50:04;2.85;;;0.98;;
43086;SDS011;28708;52.224;6.924;2022-09-01T11:52:53;2.42;;;0.80;;
43086;SDS011;28708;52.224;6.924;2022-09-01T11:55:28;3.60;;;0.88;;
43086;SDS011;28708;52.224;6.924;2022-09-01T11:58:00;2.38;;;1.08;;
43086;SDS011;28708;52.224;6.924;2022-09-01T12:00:28;3.95;;;0.80;;
43086;SDS011;28708;52.224;6.924;2022-09-01T12:03:03;4.88;;;0.85;;
43086;SDS011;28708;52.224;6.924;2022-09-01T12:05:43;2.88;;;0.80;;
43086;SDS011;28708;52.224;6.924;2022-09-01T12:08:14;3.05;;;0.90;;
43086;SDS011;28708;52.224;6.924;2022-09-01T12:10:42;4.93;;;1.00;;
43086;SDS011;28708;52.224;6.924;2022-09-01T12:13:20;1.35;;;0.80;;
43086;SDS011;28708;52.224;6.924;2022-09-01T12:15:52;2.33;;;0.77;;
43086;SDS011;28708;52.224;6.924;2022-09-01T12:18:27;3.05;;;0.80;;
43086;SDS011;28708;52.224;6.924;2022-09-01T12:20:59;2.90;;;0.90;;
43086;SDS011;28708;52.224;6.924;2022-09-01T12:25:53;2.30;;;0.90;;
43086;SDS011;28708;52.224;6.924;2022-09-01T12:28:25;3.53;;;1.02;;
43086;SDS011;28708;52.224;6.924;2022-09-01T12:30:57;4.30;;;0.80;;
43086;SDS011;28708;52.224;6.924;2022-09-01T12:33:24;1.75;;;0.85;;
43086;SDS011;28708;52.224;6.924;2022-09-01T12:39:18;3.15;;;0.75;;
43086;SDS011;28708;52.224;6.924;2022-09-01T12:41:59;2.50;;;0.88;;
43086;SDS011;28708;52.224;6.924;2022-09-01T12:44:48;3.42;;;0.90;;
43086;SDS011;28708;52.224;6.924;2022-09-01T12:52:44;3.10;;;0.60;;
43086;SDS011;28708;52.224;6.924;2022-09-01T12:55:23;6.38;;;1.20;;
43086;SDS011;28708;52.224;6.924;2022-09-01T12:57:51;3.72;;;1.13;;
43086;SDS011;28708;52.224;6.924;2022-09-01T13:05:20;1.33;;;0.75;;
43086;SDS011;28708;52.224;6.924;2022-09-01T13:07:55;2.63;;;0.88;;
43086;SDS011;28708;52.224;6.924;2022-09-01T13:10:24;5.53;;;1.17;;
43086;SDS011;28708;52.224;6.924;2022-09-01T13:12:53;2.55;;;0.80;;
43086;SDS011;28708;52.224;6.924;2022-09-01T13:15:22;2.83;;;0.80;;
43086;SDS011;28708;52.224;6.924;2022-09-01T13:17:50;1.55;;;0.70;;
43086;SDS011;28708;52.224;6.924;2022-09-01T13:20:17;1.85;;;0.70;;
43086;SDS011;28708;52.224;6.924;2022-09-01T13:22:43;2.33;;;0.80;;
43086;SDS011;28708;52.224;6.924;2022-09-01T13:25:13;2.22;;;0.90;;
43086;SDS011;28708;52.224;6.924;2022-09-01T13:27:42;2.78;;;0.82;;
43086;SDS011;28708;52.224;6.924;2022-09-01T13:30:09;2.45;;;1.10;;
43086;SDS011;28708;52.224;6.924;2022-09-01T13:32:38;4.38;;;0.90;;
43086;SDS011;28708;52.224;6.924;2022-09-01T13:35:04;3.42;;;0.82;;
43086;SDS011;28708;52.224;6.924;2022-09-01T13:37:30;4.50;;;0.90;;
43086;SDS011;28708;52.224;6.924;2022-09-01T13:39:56;2.85;;;0.98;;
43086;SDS011;28708;52.224;6.924;2022-09-01T13:42:21;9.45;;;0.95;;
43086;SDS011;28708;52.224;6.924;2022-09-01T13:44:47;3.30;;;0.70;;
43086;SDS011;28708;52.224;6.924;2022-09-01T13:47:13;3.65;;;0.77;;
43086;SDS011;28708;52.224;6.924;2022-09-01T13:49:39;2.20;;;0.73;;
43086;SDS011;28708;52.224;6.924;2022-09-01T13:52:04;1.75;;;0.80;;
43086;SDS011;28708;52.224;6.924;2022-09-01T13:54:30;3.47;;;0.85;;
43086;SDS011;28708;52.224;6.924;2022-09-01T13:56:56;2.53;;;0.98;;
43086;SDS011;28708;52.224;6.924;2022-09-01T13:59:23;5.85;;;1.00;;
43086;SDS011;28708;52.224;6.924;2022-09-01T14:01:48;4.50;;;1.08;;
43086;SDS011;28708;52.224;6.924;2022-09-01T14:04:15;5.85;;;1.02;;
43086;SDS011;28708;52.224;6.924;2022-09-01T14:06:43;2.45;;;0.90;;
43086;SDS011;28708;52.224;6.924;2022-09-01T14:09:09;1.70;;;0.77;;
43086;SDS011;28708;52.224;6.924;2022-09-01T14:11:36;5.30;;;0.98;;
43086;SDS011;28708;52.224;6.924;2022-09-01T14:14:02;1.80;;;0.70;;
43086;SDS011;28708;52.224;6.924;2022-09-01T14:16:29;1.80;;;0.90;;
43086;SDS011;28708;52.224;6.924;2022-09-01T14:18:55;4.03;;;0.90;;
43086;SDS011;28708;52.224;6.924;2022-09-01T14:21:20;2.65;;;0.80;;
43086;SDS011;28708;52.224;6.924;2022-09-01T14:23:46;3.47;;;1.00;;
43086;SDS011;28708;52.224;6.924;2022-09-01T14:26:13;3.85;;;1.02;;
43086;SDS011;28708;52.224;6.924;2022-09-01T14:28:41;2.58;;;0.90;;
43086;SDS011;28708;52.224;6.924;2022-09-01T14:31:13;5.57;;;1.13;;
43086;SDS011;28708;52.224;6.924;2022-09-01T14:33:42;2.53;;;1.23;;
43086;SDS011;28708;52.224;6.924;2022-09-01T14:36:14;3.72;;;1.30;;
43086;SDS011;28708;52.224;6.924;2022-09-01T14:38:46;5.43;;;1.23;;
43086;SDS011;28708;52.224;6.924;2022-09-01T14:41:15;3.35;;;0.90;;
43086;SDS011;28708;52.224;6.924;2022-09-01T14:43:48;3.78;;;0.95;;
43086;SDS011;28708;52.224;6.924;2022-09-01T14:48:44;5.78;;;1.13;;
43086;SDS011;28708;52.224;6.924;2022-09-01T14:51:29;5.22;;;0.75;;
43086;SDS011;28708;52.224;6.924;2022-09-01T14:53:56;5.25;;;0.82;;
43086;SDS011;28708;52.224;6.924;2022-09-01T14:56:22;3.08;;;1.00;;
43086;SDS011;28708;52.224;6.924;2022-09-01T14:58:49;1.70;;;0.77;;
43086;SDS011;28708;52.224;6.924;2022-09-01T15:01:23;6.25;;;0.73;;
43086;SDS011;28708;52.224;6.924;2022-09-01T15:03:50;4.70;;;0.77;;
43086;SDS011;28708;52.224;6.924;2022-09-01T15:06:17;2.28;;;0.80;;
43086;SDS011;28708;52.224;6.924;2022-09-01T15:08:44;5.80;;;0.80;;
43086;SDS011;28708;52.224;6.924;2022-09-01T15:11:13;2.83;;;0.90;;
43086;SDS011;28708;52.224;6.924;2022-09-01T15:13:45;3.47;;;1.02;;
43086;SDS011;28708;52.224;6.924;2022-09-01T15:16:12;3.80;;;0.95;;
43086;SDS011;28708;52.224;6.924;2022-09-01T15:18:40;4.93;;;0.87;;
43086;SDS011;28708;52.224;6.924;2022-09-01T15:21:06;3.42;;;0.68;;
43086;SDS011;28708;52.224;6.924;2022-09-01T15:23:33;1.52;;;0.82;;
43086;SDS011;28708;52.224;6.924;2022-09-01T15:25:59;1.90;;;0.70;;
43086;SDS011;28708;52.224;6.924;2022-09-01T15:28:25;2.28;;;0.80;;
43086;SDS011;28708;52.224;6.924;2022-09-01T15:30:51;1.70;;;0.90;;
43086;SDS011;28708;52.224;6.924;2022-09-01T15:33:18;2.30;;;0.90;;
43086;SDS011;28708;52.224;6.924;2022-09-01T15:35:45;3.95;;;0.80;;
43086;SDS011;28708;52.224;6.924;2022-09-01T15:38:12;3.60;;;0.70;;
43086;SDS011;28708;52.224;6.924;2022-09-01T15:40:40;3.83;;;1.70;;
43086;SDS011;28708;52.224;6.924;2022-09-01T15:43:07;2.35;;;0.93;;
43086;SDS011;28708;52.224;6.924;2022-09-01T15:45:33;3.60;;;0.70;;
43086;SDS011;28708;52.224;6.924;2022-09-01T15:48:00;2.45;;;0.70;;
43086;SDS011;28708;52.224;6.924;2022-09-01T15:50:26;7.32;;;0.90;;
43086;SDS011;28708;52.224;6.924;2022-09-01T15:52:56;4.13;;;0.73;;
43086;SDS011;28708;52.224;6.924;2022-09-01T15:55:26;3.20;;;0.80;;
43086;SDS011;28708;52.224;6.924;2022-09-01T15:58:02;2.38;;;0.70;;
43086;SDS011;28708;52.224;6.924;2022-09-01T16:00:28;4.80;;;1.00;;
43086;SDS011;28708;52.224;6.924;2022-09-01T16:02:54;1.88;;;0.73;;
43086;SDS011;28708;52.224;6.924;2022-09-01T16:05:22;3.08;;;0.90;;
43086;SDS011;28708;52.224;6.924;2022-09-01T16:07:50;1.80;;;0.70;;
43086;SDS011;28708;52.224;6.924;2022-09-01T16:10:16;4.00;;;1.05;;
43086;SDS011;28708;52.224;6.924;2022-09-01T16:12:42;1.35;;;0.70;;
43086;SDS011;28708;52.224;6.924;2022-09-01T16:15:14;6.13;;;0.90;;
43086;SDS011;28708;52.224;6.924;2022-09-01T16:23:12;5.45;;;1.13;;
43086;SDS011;28708;52.224;6.924;2022-09-01T16:25:41;2.53;;;0.95;;
43086;SDS011;28708;52.224;6.924;2022-09-01T16:28:29;4.15;;;0.77;;
43086;SDS011;28708;52.224;6.924;2022-09-01T16:31:02;1.92;;;0.70;;
43086;SDS011;28708;52.224;6.924;2022-09-01T16:33:35;2.53;;;0.68;;
43086;SDS011;28708;52.224;6.924;2022-09-01T16:36:08;3.22;;;0.82;;
43086;SDS011;28708;52.224;6.924;2022-09-01T16:52:27;4.13;;;0.95;;
43086;SDS011;28708;52.224;6.924;2022-09-01T16:55:01;3.20;;;0.85;;
43086;SDS011;28708;52.224;6.924;2022-09-01T17:00:34;7.07;;;1.38;;
43086;SDS011;28708;52.224;6.924;2022-09-01T17:03:14;1.98;;;0.80;;
43086;SDS011;28708;52.224;6.924;2022-09-01T17:05:56;3.95;;;0.90;;